Time;durP1;ratioP1;P1;durP2;ratioP2;P2;SDS_P1;SDS_P2;PMS_P1;PMS_P2;Temp;Humidity;BMP_temperature;BMP_pressure;BME280_temperature;BME280_humidity;BME280_pressure;Samples;Min_cycle;Max_cycle;Signal;HPM_P1;HPM_P2
2022/07/08 00:00:10;;;;;;;;;;;;;;;;;;5014936;28;1911;-69
2022/07/08 00:02:39;;;;;;;;;;;;;;;;;;5029925;28;1432;-70
2022/07/08 00:05:05;;;;;;;;;;;;;;;;;;5014847;28;912;-69
2022/07/08 00:07:33;;;;;;;;;;;;;;;;;;5014181;28;1067;-69
2022/07/08 00:09:59;;;;;;;;;;;;;;;;;;5013331;28;1112;-69
2022/07/08 00:12:25;;;;;;;;;;;;;;;;;;5014771;28;1455;-69
2022/07/08 00:14:51;;;;;;;;;;;;;;;;;;5014745;28;735;-69
2022/07/08 00:17:17;;;;;;;;;;;;;;;;;;5014013;28;1060;-69
2022/07/08 00:19:44;;;;;;;;;;;;;;;;;;5013775;28;1976;-69
2022/07/08 00:22:10;;;;;;;;;;;;;;;;;;5015606;28;1378;-69
2022/07/08 00:24:37;;;;;;;;;;;;;;;;;;5014719;28;1416;-70
2022/07/08 00:27:04;;;;;;;;;;;;;;;;;;5013963;28;1060;-69
2022/07/08 00:29:30;;;;;;;;;;;;;;;;;;5014833;28;837;-69
2022/07/08 00:31:56;;;;;;;;;;;;;;;;;;5014458;28;1380;-69
2022/07/08 00:34:22;;;;;;;;;;;;;;;;;;5012937;28;1125;-70
2022/07/08 00:36:48;;;;;;;;;;;;;;;;;;5013788;28;826;-70
2022/07/08 00:39:15;;;;;;;;;;;;;;;;;;5014088;28;2301;-69
2022/07/08 00:41:42;;;;;;;;;;;;;;;;;;5013042;28;1327;-70
2022/07/08 00:44:08;;;;;;;;;;;;;;;;;;5014133;28;1239;-71
2022/07/08 00:46:34;;;;;;;;;;;;;;;;;;5012413;28;1157;-70
2022/07/08 00:49:01;;;;;;;;;;;;;;;;;;5029093;28;1081;-69
2022/07/08 00:51:27;;;;;;;;;;;;;;;;;;5013929;28;1350;-70
2022/07/08 00:53:53;;;;;;;;;;;;;;;;;;5013963;28;881;-70
2022/07/08 00:56:20;;;;;;;;;;;;;;;;;;5013130;28;1079;-70
2022/07/08 00:58:48;;;;;;;;;;;;;;;;;;5013637;28;1914;-70
2022/07/08 01:01:14;;;;;;;;;;;;;;;;;;5013370;28;1275;-69
2022/07/08 01:03:41;;;;;;;;;;;;;;;;;;5013675;28;804;-69
2022/07/08 01:06:07;;;;;;;;;;;;;;;;;;5011599;28;1648;-69
2022/07/08 01:08:33;;;;;;;;;;;;;;;;;;5012737;28;1327;-70
2022/07/08 01:10:59;;;;;;;;;;;;;;;;;;5012683;28;1391;-70
2022/07/08 01:13:25;;;;;;;;;;;;;;;;;;5013746;28;920;-70
2022/07/08 01:15:53;;;;;;;;;;;;;;;;;;5013661;28;736;-70
2022/07/08 01:18:20;;;;;;;;;;;;;;;;;;5011452;28;1411;-70
2022/07/08 01:20:48;;;;;;;;;;;;;;;;;;5013589;28;1984;-70
2022/07/08 01:23:14;;;;;;;;;;;;;;;;;;5013539;28;908;-70
2022/07/08 01:25:40;;;;;;;;;;;;;;;;;;5013840;28;1064;-70
2022/07/08 01:28:06;;;;;;;;;;;;;;;;;;5013225;28;862;-71
2022/07/08 01:30:32;;;;;;;;;;;;;;;;;;5012947;28;1415;-70
2022/07/08 01:32:59;;;;;;;;;;;;;;;;;;5013462;28;1055;-69
2022/07/08 01:35:25;;;;;;;;;;;;;;;;;;5012342;28;1188;-70
2022/07/08 01:37:52;;;;;;;;;;;;;;;;;;5011163;28;1298;-71
2022/07/08 01:40:18;;;;;;;;;;;;;;;;;;5012860;28;1985;-70
2022/07/08 01:42:45;;;;;;;;;;;;;;;;;;5013142;28;1068;-70
2022/07/08 01:45:11;;;;;;;;;;;;;;;;;;5013022;28;1048;-69
2022/07/08 01:47:37;;;;;;;;;;;;;;;;;;5012309;28;929;-70
2022/07/08 01:50:04;;;;;;;;;;;;;;;;;;5012315;28;1071;-70
2022/07/08 01:52:30;;;;;;;;;;;;;;;;;;5011616;28;1712;-70
2022/07/08 01:54:57;;;;;;;;;;;;;;;;;;5012830;28;1025;-70
2022/07/08 01:57:24;;;;;;;;;;;;;;;;;;5010926;28;1344;-69
2022/07/08 01:59:50;;;;;;;;;;;;;;;;;;5011050;28;1926;-69
2022/07/08 02:02:17;;;;;;;;;;;;;;;;;;5012398;28;1286;-69
2022/07/08 02:04:43;;;;;;;;;;;;;;;;;;5012598;28;1142;-69
2022/07/08 02:07:10;;;;;;;;;;;;;;;;;;5011876;28;1416;-69
2022/07/08 02:09:36;;;;;;;;;;;;;;;;;;5012129;28;1059;-69
2022/07/08 02:12:18;;;;;;;;;;;;;;;;;;5027338;28;1342;-70
2022/07/08 02:14:44;;;;;;;;;;;;;;;;;;5012394;28;1421;-69
2022/07/08 02:17:10;;;;;;;;;;;;;;;;;;5011755;28;853;-69
2022/07/08 02:19:37;;;;;;;;;;;;;;;;;;5010715;28;1914;-70
2022/07/08 02:22:03;;;;;;;;;;;;;;;;;;5011228;28;1404;-69
2022/07/08 02:24:29;;;;;;;;;;;;;;;;;;5003313;28;1945;-70
2022/07/08 02:26:56;;;;;;;;;;;;;;;;;;5002703;28;1159;-70
2022/07/08 02:29:23;;;;;;;;;;;;;;;;;;5011132;28;1461;-70
2022/07/08 02:31:49;;;;;;;;;;;;;;;;;;5011933;28;1368;-69
2022/07/08 02:34:16;;;;;;;;;;;;;;;;;;5011806;28;834;-70
2022/07/08 02:36:42;;;;;;;;;;;;;;;;;;5010037;28;1297;-70
2022/07/08 02:39:08;;;;;;;;;;;;;;;;;;5012314;28;934;-71
2022/07/08 02:41:34;;;;;;;;;;;;;;;;;;5011955;28;1914;-70
2022/07/08 02:44:00;;;;;;;;;;;;;;;;;;5011627;28;1088;-70
2022/07/08 02:46:28;;;;;;;;;;;;;;;;;;5009636;28;1168;-69
2022/07/08 02:48:54;;;;;;;;;;;;;;;;;;5010539;28;1244;-69
2022/07/08 02:51:20;;;;;;;;;;;;;;;;;;5010373;28;1376;-70
2022/07/08 02:53:46;;;;;;;;;;;;;;;;;;5010302;28;1251;-70
2022/07/08 02:56:12;;;;;;;;;;;;;;;;;;5011112;28;1048;-70
2022/07/08 02:58:39;;;;;;;;;;;;;;;;;;5011675;28;1123;-69
2022/07/08 03:01:05;;;;;;;;;;;;;;;;;;5011562;28;1914;-70
2022/07/08 03:03:33;;;;;;;;;;;;;;;;;;5011067;28;1068;-69
2022/07/08 03:05:59;;;;;;;;;;;;;;;;;;5010017;28;1182;-71
2022/07/08 03:08:25;;;;;;;;;;;;;;;;;;5009722;28;1159;-69
2022/07/08 03:10:52;;;;;;;;;;;;;;;;;;5011562;28;1261;-71
2022/07/08 03:13:18;;;;;;;;;;;;;;;;;;5010346;28;1171;-70
2022/07/08 03:15:44;;;;;;;;;;;;;;;;;;5010986;28;857;-70
2022/07/08 03:18:10;;;;;;;;;;;;;;;;;;5010860;28;1072;-71
2022/07/08 03:20:38;;;;;;;;;;;;;;;;;;5011185;28;1997;-70
2022/07/08 03:23:04;;;;;;;;;;;;;;;;;;5011465;28;938;-71
2022/07/08 03:25:30;;;;;;;;;;;;;;;;;;5011187;28;1072;-70
2022/07/08 03:27:56;;;;;;;;;;;;;;;;;;5010744;28;1064;-71
2022/07/08 03:30:22;;;;;;;;;;;;;;;;;;5010099;28;1356;-70
2022/07/08 03:32:49;;;;;;;;;;;;;;;;;;5010900;28;1115;-70
2022/07/08 03:35:15;;;;;;;;;;;;;;;;;;5011360;28;985;-70
2022/07/08 03:37:43;;;;;;;;;;;;;;;;;;5010731;28;891;-71
2022/07/08 03:42:50;;;;;;;;;;;;;;;;;;5010545;28;1132;-70
2022/07/08 03:45:16;;;;;;;;;;;;;;;;;;5011170;28;842;-71
2022/07/08 03:47:42;;;;;;;;;;;;;;;;;;5009023;28;1069;-70
2022/07/08 03:50:09;;;;;;;;;;;;;;;;;;5010766;28;903;-70
2022/07/08 03:52:35;;;;;;;;;;;;;;;;;;5009874;28;1407;-71
2022/07/08 03:55:03;;;;;;;;;;;;;;;;;;5009989;28;1247;-70
2022/07/08 03:57:29;;;;;;;;;;;;;;;;;;5010438;28;937;-70
2022/07/08 03:59:56;;;;;;;;;;;;;;;;;;5011097;28;1914;-71
2022/07/08 04:02:22;;;;;;;;;;;;;;;;;;5009442;28;1408;-70
2022/07/08 04:04:48;;;;;;;;;;;;;;;;;;5010972;28;1531;-70
2022/07/08 04:07:14;;;;;;;;;;;;;;;;;;5010314;28;848;-71
2022/07/08 04:09:41;;;;;;;;;;;;;;;;;;5009732;28;1241;-70
2022/07/08 04:12:09;;;;;;;;;;;;;;;;;;5009465;28;1319;-70
2022/07/08 04:14:36;;;;;;;;;;;;;;;;;;5010787;28;889;-70
2022/07/08 04:17:02;;;;;;;;;;;;;;;;;;5010197;28;1091;-71
2022/07/08 04:19:28;;;;;;;;;;;;;;;;;;5009292;28;1290;-71
2022/07/08 04:21:55;;;;;;;;;;;;;;;;;;5010475;28;1977;-68
2022/07/08 04:24:21;;;;;;;;;;;;;;;;;;5022047;28;1786;-70
2022/07/08 04:26:47;;;;;;;;;;;;;;;;;;5013310;28;1392;-70
2022/07/08 04:29:15;;;;;;;;;;;;;;;;;;5005174;28;1568;-71
2022/07/08 04:31:41;;;;;;;;;;;;;;;;;;5005724;28;1393;-70
2022/07/08 04:34:07;;;;;;;;;;;;;;;;;;5005438;28;1230;-69
2022/07/08 04:36:34;;;;;;;;;;;;;;;;;;4951634;28;1357;-68
2022/07/08 04:39:00;;;;;;;;;;;;;;;;;;4916468;28;1697;-67
2022/07/08 04:41:27;;;;;;;;;;;;;;;;;;4940259;28;1946;-69
2022/07/08 04:43:53;;;;;;;;;;;;;;;;;;4926366;28;1208;-67
2022/07/08 04:46:21;;;;;;;;;;;;;;;;;;4931335;28;755;-69
2022/07/08 04:48:48;;;;;;;;;;;;;;;;;;4940190;28;961;-69
2022/07/08 04:51:15;;;;;;;;;;;;;;;;;;4954109;28;1380;-69
2022/07/08 04:53:41;;;;;;;;;;;;;;;;;;4954674;28;814;-68
2022/07/08 04:56:08;;;;;;;;;;;;;;;;;;4946112;28;1606;-68
2022/07/08 04:58:35;;;;;;;;;;;;;;;;;;4931874;28;1085;-67
2022/07/08 05:01:01;;;;;;;;;;;;;;;;;;4934554;28;1930;-67
2022/07/08 05:03:29;;;;;;;;;;;;;;;;;;4936678;28;1093;-68
2022/07/08 05:05:56;;;;;;;;;;;;;;;;;;4922250;28;925;-68
2022/07/08 05:08:22;;;;;;;;;;;;;;;;;;4932552;28;1480;-67
2022/07/08 05:10:49;;;;;;;;;;;;;;;;;;4939899;28;1589;-67
2022/07/08 05:13:15;;;;;;;;;;;;;;;;;;4942989;28;1420;-70
2022/07/08 05:15:42;;;;;;;;;;;;;;;;;;4959032;28;1420;-67
2022/07/08 05:18:08;;;;;;;;;;;;;;;;;;4924054;28;981;-67
2022/07/08 05:20:36;;;;;;;;;;;;;;;;;;4971743;28;1910;-67
2022/07/08 05:23:02;;;;;;;;;;;;;;;;;;5011481;28;953;-69
2022/07/08 05:25:28;;;;;;;;;;;;;;;;;;5011281;28;1085;-69
2022/07/08 05:27:55;;;;;;;;;;;;;;;;;;5009532;28;1224;-69
2022/07/08 05:30:21;;;;;;;;;;;;;;;;;;5011872;28;1482;-68
2022/07/08 05:32:47;;;;;;;;;;;;;;;;;;5010572;28;1399;-69
2022/07/08 05:35:14;;;;;;;;;;;;;;;;;;5010677;28;1209;-68
2022/07/08 05:37:41;;;;;;;;;;;;;;;;;;5006936;28;1315;-69
2022/07/08 05:40:08;;;;;;;;;;;;;;;;;;5011630;28;1231;-68
2022/07/08 05:42:34;;;;;;;;;;;;;;;;;;5011336;28;1922;-68
2022/07/08 05:45:00;;;;;;;;;;;;;;;;;;5011846;28;1335;-69
2022/07/08 05:47:26;;;;;;;;;;;;;;;;;;5010647;28;1273;-69
2022/07/08 05:49:53;;;;;;;;;;;;;;;;;;4994882;28;1393;-68
2022/07/08 05:52:19;;;;;;;;;;;;;;;;;;4981685;28;1466;-68
2022/07/08 05:54:46;;;;;;;;;;;;;;;;;;4999267;28;1517;-69
2022/07/08 05:57:13;;;;;;;;;;;;;;;;;;5009134;28;1364;-68
2022/07/08 05:59:39;;;;;;;;;;;;;;;;;;5010583;28;1326;-69
2022/07/08 06:02:05;;;;;;;;;;;;;;;;;;5010963;28;1907;-69
2022/07/08 06:04:32;;;;;;;;;;;;;;;;;;5009773;28;1304;-69
2022/07/08 06:06:58;;;;;;;;;;;;;;;;;;5010693;28;1404;-69
2022/07/08 06:09:24;;;;;;;;;;;;;;;;;;5006820;28;1123;-69
2022/07/08 06:11:52;;;;;;;;;;;;;;;;;;4993097;28;1475;-68
2022/07/08 06:14:18;;;;;;;;;;;;;;;;;;5005886;28;1725;-68
2022/07/08 06:16:47;;;;;;;;;;;;;;;;;;5010603;28;1451;-69
2022/07/08 06:19:13;;;;;;;;;;;;;;;;;;5007394;28;1138;-67
2022/07/08 06:21:39;;;;;;;;;;;;;;;;;;5023577;22;3903;-72
2022/07/08 06:24:06;;;;;;;;;;;;;;;;;;5005839;28;1349;-71
2022/07/08 06:26:32;;;;;;;;;;;;;;;;;;5011332;28;1341;-71
2022/07/08 06:29:00;;;;;;;;;;;;;;;;;;5010597;28;1362;-70
2022/07/08 06:31:26;;;;;;;;;;;;;;;;;;5012339;28;1318;-72
2022/07/08 06:33:56;;;;;;;;;;;;;;;;;;5011718;28;1064;-70
2022/07/08 06:36:22;;;;;;;;;;;;;;;;;;5010745;28;1421;-73
2022/07/08 06:38:48;;;;;;;;;;;;;;;;;;5003950;28;1254;-72
2022/07/08 06:41:14;;;;;;;;;;;;;;;;;;4991178;28;1915;-72
2022/07/08 06:43:41;;;;;;;;;;;;;;;;;;4996132;28;2039;-72
2022/07/08 06:46:08;;;;;;;;;;;;;;;;;;5001331;28;1242;-71
2022/07/08 06:48:34;;;;;;;;;;;;;;;;;;5003388;28;1329;-70
2022/07/08 06:51:01;;;;;;;;;;;;;;;;;;5010729;28;1167;-70
2022/07/08 06:53:28;;;;;;;;;;;;;;;;;;5010334;28;1385;-70
2022/07/08 06:55:55;;;;;;;;;;;;;;;;;;5008590;28;1438;-71
2022/07/08 06:58:21;;;;;;;;;;;;;;;;;;4997279;28;1250;-70
2022/07/08 07:00:47;;;;;;;;;;;;;;;;;;4992017;28;1914;-70
2022/07/08 07:03:14;;;;;;;;;;;;;;;;;;4998446;28;1483;-71
2022/07/08 07:05:40;;;;;;;;;;;;;;;;;;5004542;28;1428;-71
2022/07/08 07:08:07;;;;;;;;;;;;;;;;;;5006083;28;1249;-71
2022/07/08 07:10:36;;;;;;;;;;;;;;;;;;5010053;28;1378;-71
2022/07/08 07:13:02;;;;;;;;;;;;;;;;;;5007616;28;1480;-71
2022/07/08 07:15:28;;;;;;;;;;;;;;;;;;5008413;28;1499;-72
2022/07/08 07:17:54;;;;;;;;;;;;;;;;;;4999489;28;1442;-72
2022/07/08 07:20:22;;;;;;;;;;;;;;;;;;5000785;28;1389;-71
2022/07/08 07:22:48;;;;;;;;;;;;;;;;;;5005732;28;1918;-71
2022/07/08 07:25:14;;;;;;;;;;;;;;;;;;4999654;28;1401;-69
2022/07/08 07:27:41;;;;;;;;;;;;;;;;;;5008071;28;1571;-70
2022/07/08 07:30:08;;;;;;;;;;;;;;;;;;5008784;28;1163;-70
2022/07/08 07:32:35;;;;;;;;;;;;;;;;;;4990855;28;1455;-71
2022/07/08 07:35:01;;;;;;;;;;;;;;;;;;4990065;28;1487;-71
2022/07/08 07:37:28;;;;;;;;;;;;;;;;;;4999505;28;1419;-72
2022/07/08 07:39:54;;;;;;;;;;;;;;;;;;5004702;28;1405;-71
2022/07/08 07:42:21;;;;;;;;;;;;;;;;;;5002001;28;1914;-71
2022/07/08 07:44:47;;;;;;;;;;;;;;;;;;5007799;28;1408;-72
2022/07/08 07:47:13;;;;;;;;;;;;;;;;;;4996247;28;1482;-71
2022/07/08 07:49:39;;;;;;;;;;;;;;;;;;5001249;28;1057;-71
2022/07/08 07:52:06;;;;;;;;;;;;;;;;;;5009282;28;1346;-71
2022/07/08 07:54:34;;;;;;;;;;;;;;;;;;5009295;28;1400;-71
2022/07/08 07:57:00;;;;;;;;;;;;;;;;;;4998461;28;1487;-71
2022/07/08 07:59:26;;;;;;;;;;;;;;;;;;5002524;28;1409;-69
2022/07/08 08:01:53;;;;;;;;;;;;;;;;;;5000198;28;1919;-70
2022/07/08 08:04:20;;;;;;;;;;;;;;;;;;4993738;28;1463;-70
2022/07/08 08:06:46;;;;;;;;;;;;;;;;;;5001578;28;1189;-71
2022/07/08 08:09:12;;;;;;;;;;;;;;;;;;5007166;28;1428;-71
2022/07/08 08:11:40;;;;;;;;;;;;;;;;;;5006599;28;1669;-71
2022/07/08 08:14:06;;;;;;;;;;;;;;;;;;5009486;28;1196;-71
2022/07/08 08:16:32;;;;;;;;;;;;;;;;;;5003257;28;1432;-72
2022/07/08 08:18:58;;;;;;;;;;;;;;;;;;5006235;28;1554;-70
2022/07/08 08:21:24;;;;;;;;;;;;;;;;;;5010886;28;1922;-71
2022/07/08 08:23:51;;;;;;;;;;;;;;;;;;5012391;28;1844;-70
2022/07/08 08:26:17;;;;;;;;;;;;;;;;;;5009156;28;1698;-69
2022/07/08 08:28:44;;;;;;;;;;;;;;;;;;5013345;28;1106;-70
2022/07/08 08:31:11;;;;;;;;;;;;;;;;;;5008744;28;1111;-70
2022/07/08 08:33:37;;;;;;;;;;;;;;;;;;5013157;28;1300;-70
2022/07/08 08:36:03;;;;;;;;;;;;;;;;;;5013637;28;1119;-71
2022/07/08 08:38:29;;;;;;;;;;;;;;;;;;5010257;28;917;-70
2022/07/08 08:40:57;;;;;;;;;;;;;;;;;;5008578;28;1377;-71
2022/07/08 08:43:23;;;;;;;;;;;;;;;;;;5003702;28;2572;-71
2022/07/08 08:45:51;;;;;;;;;;;;;;;;;;5005301;28;1201;-71
2022/07/08 08:48:17;;;;;;;;;;;;;;;;;;4991852;28;1359;-70
2022/07/08 08:50:55;;;;;;;;;;;;;;;;;;4996450;28;1337;-72
2022/07/08 08:53:23;;;;;;;;;;;;;;;;;;4999837;28;1460;-74
2022/07/08 08:55:50;;;;;;;;;;;;;;;;;;5001932;28;1459;-70
2022/07/08 08:58:16;;;;;;;;;;;;;;;;;;5000028;28;1179;-72
2022/07/08 09:00:42;;;;;;;;;;;;;;;;;;4993790;28;1072;-72
2022/07/08 09:03:10;;;;;;;;;;;;;;;;;;4992991;28;1910;-71
2022/07/08 09:05:36;;;;;;;;;;;;;;;;;;4993154;28;1456;-71
2022/07/08 09:08:02;;;;;;;;;;;;;;;;;;4997736;28;1611;-70
2022/07/08 09:10:28;;;;;;;;;;;;;;;;;;5005050;28;1395;-71
2022/07/08 09:13:05;;;;;;;;;;;;;;;;;;5001287;28;1457;-71
2022/07/08 09:15:32;;;;;;;;;;;;;;;;;;4998832;28;1115;-72
2022/07/08 09:17:58;;;;;;;;;;;;;;;;;;5008251;28;1471;-71
2022/07/08 09:20:26;;;;;;;;;;;;;;;;;;5009930;28;1451;-71
2022/07/08 09:22:52;;;;;;;;;;;;;;;;;;5026322;28;1930;-73
2022/07/08 09:25:18;;;;;;;;;;;;;;;;;;5030765;28;1133;-70
2022/07/08 09:27:44;;;;;;;;;;;;;;;;;;5019434;28;1380;-70
2022/07/08 09:30:11;;;;;;;;;;;;;;;;;;4994324;28;1324;-71
2022/07/08 09:32:37;;;;;;;;;;;;;;;;;;5010684;28;1573;-71
2022/07/08 09:35:05;;;;;;;;;;;;;;;;;;5001655;28;1847;-71
2022/07/08 09:37:32;;;;;;;;;;;;;;;;;;4999808;28;1093;-70
2022/07/08 09:39:59;;;;;;;;;;;;;;;;;;4991260;28;1238;-71
2022/07/08 09:42:25;;;;;;;;;;;;;;;;;;4992394;28;1976;-71
2022/07/08 09:44:53;;;;;;;;;;;;;;;;;;5001906;28;1243;-72
2022/07/08 09:47:19;;;;;;;;;;;;;;;;;;4999166;28;1649;-71
2022/07/08 09:49:46;;;;;;;;;;;;;;;;;;5006919;28;1486;-69
2022/07/08 09:52:13;;;;;;;;;;;;;;;;;;5009461;28;1336;-71
2022/07/08 09:54:40;;;;;;;;;;;;;;;;;;5009832;28;1760;-71
2022/07/08 09:57:07;;;;;;;;;;;;;;;;;;5003133;28;1272;-73
2022/07/08 09:59:33;;;;;;;;;;;;;;;;;;5004984;28;1931;-72
2022/07/08 10:02:00;;;;;;;;;;;;;;;;;;5008465;28;1906;-71
2022/07/08 10:04:26;;;;;;;;;;;;;;;;;;5003962;28;1479;-71
2022/07/08 10:06:53;;;;;;;;;;;;;;;;;;4996417;28;1547;-71
2022/07/08 10:09:19;;;;;;;;;;;;;;;;;;5008607;28;1845;-73
2022/07/08 10:11:47;;;;;;;;;;;;;;;;;;5010099;28;1551;-72
2022/07/08 10:14:13;;;;;;;;;;;;;;;;;;4998339;28;1129;-72
2022/07/08 10:16:40;;;;;;;;;;;;;;;;;;4990159;28;1140;-73
2022/07/08 10:19:07;;;;;;;;;;;;;;;;;;4991623;28;1055;-71
2022/07/08 10:21:34;;;;;;;;;;;;;;;;;;4995425;28;1934;-71
2022/07/08 10:24:00;;;;;;;;;;;;;;;;;;5003646;28;1933;-72
2022/07/08 10:26:28;;;;;;;;;;;;;;;;;;5003233;28;1580;-72
2022/07/08 10:29:02;;;;;;;;;;;;;;;;;;4996500;28;1583;-72
2022/07/08 10:31:29;;;;;;;;;;;;;;;;;;5000458;28;1431;-72
2022/07/08 10:33:59;;;;;;;;;;;;;;;;;;4992198;28;1480;-71
2022/07/08 10:36:26;;;;;;;;;;;;;;;;;;4930629;28;1076;-74
2022/07/08 10:38:55;;;;;;;;;;;;;;;;;;4917711;28;766;-71
2022/07/08 10:41:23;;;;;;;;;;;;;;;;;;4928176;28;1472;-73
2022/07/08 10:43:50;;;;;;;;;;;;;;;;;;4956792;28;1957;-71
2022/07/08 10:46:18;;;;;;;;;;;;;;;;;;4940809;28;1023;-72
2022/07/08 10:48:48;;;;;;;;;;;;;;;;;;4933920;28;840;-73
2022/07/08 10:51:34;;;;;;;;;;;;;;;;;;4939509;28;1357;-72
2022/07/08 10:54:01;;;;;;;;;;;;;;;;;;4922384;28;902;-72
2022/07/08 10:56:47;;;;;;;;;;;;;;;;;;4936285;28;981;-74
2022/07/08 10:59:17;;;;;;;;;;;;;;;;;;4919418;28;1063;-72
2022/07/08 11:01:45;;;;;;;;;;;;;;;;;;4921627;28;1342;-75
2022/07/08 11:04:22;;;;;;;;;;;;;;;;;;4913527;28;2103;-75
2022/07/08 11:06:48;;;;;;;;;;;;;;;;;;4935167;28;1422;-75
2022/07/08 11:09:16;;;;;;;;;;;;;;;;;;4937286;28;1074;-71
2022/07/08 11:11:43;;;;;;;;;;;;;;;;;;4936411;28;1502;-73
2022/07/08 11:14:09;;;;;;;;;;;;;;;;;;4937363;28;1018;-73
2022/07/08 11:16:36;;;;;;;;;;;;;;;;;;4939884;28;871;-72
2022/07/08 11:19:05;;;;;;;;;;;;;;;;;;4939350;28;878;-73
2022/07/08 11:21:32;;;;;;;;;;;;;;;;;;4938729;28;1302;-76
2022/07/08 11:23:59;;;;;;;;;;;;;;;;;;4930493;28;1986;-72
2022/07/08 11:26:26;;;;;;;;;;;;;;;;;;4943756;28;1364;-76
2022/07/08 11:28:53;;;;;;;;;;;;;;;;;;4959604;28;965;-74
2022/07/08 11:31:20;;;;;;;;;;;;;;;;;;4961333;28;898;-73
2022/07/08 11:33:47;;;;;;;;;;;;;;;;;;4960825;28;818;-72
2022/07/08 11:36:18;;;;;;;;;;;;;;;;;;4956599;28;713;-72
2022/07/08 11:38:45;;;;;;;;;;;;;;;;;;4941500;28;1130;-74
2022/07/08 11:41:11;;;;;;;;;;;;;;;;;;4935438;28;944;-74
2022/07/08 11:43:38;;;;;;;;;;;;;;;;;;4926001;28;1934;-73
2022/07/08 11:46:04;;;;;;;;;;;;;;;;;;4925730;28;1447;-75
2022/07/08 11:48:37;;;;;;;;;;;;;;;;;;4936972;28;1189;-72
2022/07/08 11:51:04;;;;;;;;;;;;;;;;;;4946894;28;1453;-73
2022/07/08 11:53:32;;;;;;;;;;;;;;;;;;4951140;28;1298;-73
2022/07/08 11:55:59;;;;;;;;;;;;;;;;;;4924096;28;1257;-73
2022/07/08 11:58:25;;;;;;;;;;;;;;;;;;4950943;28;1201;-73
2022/07/08 12:00:52;;;;;;;;;;;;;;;;;;4949292;28;1089;-72
2022/07/08 12:03:19;;;;;;;;;;;;;;;;;;4953652;28;2011;-73
2022/07/08 12:05:47;;;;;;;;;;;;;;;;;;4941756;28;1173;-73
2022/07/08 12:08:13;;;;;;;;;;;;;;;;;;4956123;28;1160;-72
2022/07/08 12:10:41;;;;;;;;;;;;;;;;;;4942865;28;1515;-72
2022/07/08 12:13:08;;;;;;;;;;;;;;;;;;4943876;28;1386;-72
2022/07/08 12:15:35;;;;;;;;;;;;;;;;;;4936451;28;1218;-72
2022/07/08 12:18:01;;;;;;;;;;;;;;;;;;4943407;28;1429;-73
2022/07/08 12:20:31;;;;;;;;;;;;;;;;;;4945773;28;1044;-74
2022/07/08 12:22:58;;;;;;;;;;;;;;;;;;4977460;22;3760;-71
2022/07/08 12:25:24;;;;;;;;;;;;;;;;;;4956498;28;1118;-70
2022/07/08 12:27:56;;;;;;;;;;;;;;;;;;4954864;28;958;-71
2022/07/08 12:30:25;;;;;;;;;;;;;;;;;;4950696;28;898;-71
2022/07/08 12:32:52;;;;;;;;;;;;;;;;;;4954781;28;1590;-71
2022/07/08 12:35:18;;;;;;;;;;;;;;;;;;4969429;28;904;-71
2022/07/08 12:37:45;;;;;;;;;;;;;;;;;;4970149;28;869;-70
2022/07/08 12:40:15;;;;;;;;;;;;;;;;;;4966059;28;932;-71
2022/07/08 12:42:41;;;;;;;;;;;;;;;;;;4961795;28;1999;-70
2022/07/08 12:45:15;;;;;;;;;;;;;;;;;;4963593;28;998;-70
2022/07/08 12:47:42;;;;;;;;;;;;;;;;;;4969113;28;952;-72
2022/07/08 12:50:08;;;;;;;;;;;;;;;;;;4971598;28;1135;-71
2022/07/08 12:52:35;;;;;;;;;;;;;;;;;;4964326;28;1387;-71
2022/07/08 12:55:01;;;;;;;;;;;;;;;;;;4952209;28;1243;-71
2022/07/08 12:57:28;;;;;;;;;;;;;;;;;;4955863;28;1133;-72
2022/07/08 12:59:54;;;;;;;;;;;;;;;;;;4960860;28;846;-72
2022/07/08 13:02:22;;;;;;;;;;;;;;;;;;4966402;28;1377;-71
2022/07/08 13:04:48;;;;;;;;;;;;;;;;;;4967078;28;1946;-71
2022/07/08 13:07:15;;;;;;;;;;;;;;;;;;4968540;28;898;-72
2022/07/08 13:09:41;;;;;;;;;;;;;;;;;;4967460;28;901;-71
2022/07/08 13:12:08;;;;;;;;;;;;;;;;;;4967928;28;1278;-72
2022/07/08 13:14:34;;;;;;;;;;;;;;;;;;4969111;28;973;-71
2022/07/08 13:17:01;;;;;;;;;;;;;;;;;;4959211;28;1332;-71
2022/07/08 13:19:28;;;;;;;;;;;;;;;;;;4961778;28;846;-72
2022/07/08 13:21:56;;;;;;;;;;;;;;;;;;4968368;28;1306;-72
2022/07/08 13:24:23;;;;;;;;;;;;;;;;;;4969391;28;2284;-71
2022/07/08 13:26:49;;;;;;;;;;;;;;;;;;4968878;28;882;-70
2022/07/08 13:29:15;;;;;;;;;;;;;;;;;;4967539;28;1128;-72
2022/07/08 13:31:42;;;;;;;;;;;;;;;;;;5028905;28;1139;-72
2022/07/08 13:34:09;;;;;;;;;;;;;;;;;;5024256;28;1306;-71
2022/07/08 13:36:36;;;;;;;;;;;;;;;;;;5015696;28;1395;-72
2022/07/08 13:39:02;;;;;;;;;;;;;;;;;;5038805;28;1193;-71
2022/07/08 13:41:30;;;;;;;;;;;;;;;;;;5030893;28;1122;-71
2022/07/08 13:43:56;;;;;;;;;;;;;;;;;;5029773;28;1911;-71
2022/07/08 13:46:22;;;;;;;;;;;;;;;;;;5028608;28;1389;-71
2022/07/08 13:48:48;;;;;;;;;;;;;;;;;;5022639;28;1293;-71
2022/07/08 13:51:15;;;;;;;;;;;;;;;;;;5023983;28;1356;-71
2022/07/08 13:53:42;;;;;;;;;;;;;;;;;;5011441;28;1314;-71
2022/07/08 13:56:08;;;;;;;;;;;;;;;;;;5010636;28;933;-71
2022/07/08 13:58:34;;;;;;;;;;;;;;;;;;5011233;28;1099;-72
2022/07/08 14:01:02;;;;;;;;;;;;;;;;;;5019897;28;1285;-72
2022/07/08 14:03:29;;;;;;;;;;;;;;;;;;5023450;28;1986;-71
2022/07/08 14:05:55;;;;;;;;;;;;;;;;;;5021658;28;1213;-72
2022/07/08 14:08:21;;;;;;;;;;;;;;;;;;5010192;28;960;-72
2022/07/08 14:10:49;;;;;;;;;;;;;;;;;;5010889;28;1376;-72
2022/07/08 14:13:15;;;;;;;;;;;;;;;;;;5024427;28;1543;-74
2022/07/08 14:15:41;;;;;;;;;;;;;;;;;;5025585;28;1138;-75
2022/07/08 14:18:07;;;;;;;;;;;;;;;;;;5025988;28;1381;-74
2022/07/08 14:20:34;;;;;;;;;;;;;;;;;;5025864;28;1123;-74
2022/07/08 14:23:00;;;;;;;;;;;;;;;;;;5029713;28;1910;-73
2022/07/08 14:25:26;;;;;;;;;;;;;;;;;;5024295;28;1726;-73
2022/07/08 14:27:54;;;;;;;;;;;;;;;;;;5021799;28;2040;-73
2022/07/08 14:30:20;;;;;;;;;;;;;;;;;;5015136;28;1289;-73
2022/07/08 14:32:46;;;;;;;;;;;;;;;;;;5017604;28;1394;-72
2022/07/08 14:35:12;;;;;;;;;;;;;;;;;;5009694;28;1297;-73
2022/07/08 14:37:39;;;;;;;;;;;;;;;;;;5018208;28;1458;-73
2022/07/08 14:40:05;;;;;;;;;;;;;;;;;;5021876;28;1440;-73
2022/07/08 14:42:32;;;;;;;;;;;;;;;;;;5018781;28;1483;-72
2022/07/08 14:45:00;;;;;;;;;;;;;;;;;;5012855;28;1918;-71
2022/07/08 14:47:26;;;;;;;;;;;;;;;;;;5009959;28;660;-72
2022/07/08 14:49:52;;;;;;;;;;;;;;;;;;5011065;28;886;-72
2022/07/08 14:52:18;;;;;;;;;;;;;;;;;;5010773;28;1273;-72
2022/07/08 14:54:44;;;;;;;;;;;;;;;;;;5010664;28;1060;-72
2022/07/08 14:57:10;;;;;;;;;;;;;;;;;;5010314;28;928;-72
2022/07/08 14:59:36;;;;;;;;;;;;;;;;;;5010618;28;886;-71
2022/07/08 15:02:04;;;;;;;;;;;;;;;;;;5010843;28;1296;-72
2022/07/08 15:04:31;;;;;;;;;;;;;;;;;;5010352;28;1981;-71
2022/07/08 15:06:57;;;;;;;;;;;;;;;;;;5010108;28;773;-72
2022/07/08 15:09:23;;;;;;;;;;;;;;;;;;5010694;28;1056;-72
2022/07/08 15:11:49;;;;;;;;;;;;;;;;;;5010508;28;1052;-72
2022/07/08 15:14:16;;;;;;;;;;;;;;;;;;5015955;28;1347;-72
2022/07/08 15:16:42;;;;;;;;;;;;;;;;;;5018283;28;1196;-72
2022/07/08 15:19:11;;;;;;;;;;;;;;;;;;5017778;28;1257;-71
2022/07/08 15:21:37;;;;;;;;;;;;;;;;;;5013803;28;1223;-72
2022/07/08 15:24:04;;;;;;;;;;;;;;;;;;5010068;28;1918;-72
2022/07/08 15:26:30;;;;;;;;;;;;;;;;;;5009955;28;995;-72
2022/07/08 15:28:56;;;;;;;;;;;;;;;;;;5009976;28;1059;-72
2022/07/08 15:31:22;;;;;;;;;;;;;;;;;;5016139;28;1113;-72
2022/07/08 15:33:48;;;;;;;;;;;;;;;;;;5029968;28;1318;-72
2022/07/08 15:36:17;;;;;;;;;;;;;;;;;;5029491;28;750;-72
2022/07/08 15:38:43;;;;;;;;;;;;;;;;;;5031461;28;1287;-72
2022/07/08 15:41:10;;;;;;;;;;;;;;;;;;5020550;28;1236;-72
2022/07/08 15:43:36;;;;;;;;;;;;;;;;;;5016124;28;1918;-72
2022/07/08 15:46:02;;;;;;;;;;;;;;;;;;5029407;28;1224;-71
2022/07/08 15:48:28;;;;;;;;;;;;;;;;;;5018153;28;1283;-72
2022/07/08 15:50:56;;;;;;;;;;;;;;;;;;5028804;28;1136;-72
2022/07/08 15:53:24;;;;;;;;;;;;;;;;;;5029465;28;1406;-72
2022/07/08 15:55:50;;;;;;;;;;;;;;;;;;5027344;28;1555;-72
2022/07/08 15:58:16;;;;;;;;;;;;;;;;;;5021379;28;1418;-72
2022/07/08 16:00:42;;;;;;;;;;;;;;;;;;5014253;28;1138;-73
2022/07/08 16:03:09;;;;;;;;;;;;;;;;;;5018833;28;1546;-72
2022/07/08 16:05:35;;;;;;;;;;;;;;;;;;5030636;28;2036;-73
2022/07/08 16:08:01;;;;;;;;;;;;;;;;;;5029253;28;1072;-73
2022/07/08 16:10:29;;;;;;;;;;;;;;;;;;5030186;28;662;-73
2022/07/08 16:12:55;;;;;;;;;;;;;;;;;;5029471;28;1408;-73
2022/07/08 16:15:21;;;;;;;;;;;;;;;;;;5030882;28;1059;-73
2022/07/08 16:17:47;;;;;;;;;;;;;;;;;;5029949;28;685;-73
2022/07/08 16:20:14;;;;;;;;;;;;;;;;;;5030942;28;953;-73
2022/07/08 16:22:40;;;;;;;;;;;;;;;;;;5030837;28;1306;-72
2022/07/08 16:25:06;;;;;;;;;;;;;;;;;;5030780;28;1982;-72
2022/07/08 16:27:34;;;;;;;;;;;;;;;;;;5029469;28;1456;-73
2022/07/08 16:30:00;;;;;;;;;;;;;;;;;;5030809;28;1055;-73
2022/07/08 16:32:26;;;;;;;;;;;;;;;;;;5030521;28;1312;-73
2022/07/08 16:34:52;;;;;;;;;;;;;;;;;;5030727;28;1134;-73
2022/07/08 16:37:19;;;;;;;;;;;;;;;;;;5030221;28;977;-73
2022/07/08 16:39:45;;;;;;;;;;;;;;;;;;5030900;28;1126;-73
2022/07/08 16:42:12;;;;;;;;;;;;;;;;;;5033550;28;1413;-72
2022/07/08 16:44:39;;;;;;;;;;;;;;;;;;5034351;28;1911;-74
2022/07/08 16:47:06;;;;;;;;;;;;;;;;;;5033548;28;1103;-72
2022/07/08 16:49:32;;;;;;;;;;;;;;;;;;5033878;28;1063;-70
2022/07/08 16:51:58;;;;;;;;;;;;;;;;;;5034082;28;1304;-71
2022/07/08 16:54:24;;;;;;;;;;;;;;;;;;5034152;28;913;-72
2022/07/08 16:56:50;;;;;;;;;;;;;;;;;;5033319;28;1122;-73
2022/07/08 16:59:16;;;;;;;;;;;;;;;;;;5034112;28;1114;-71
2022/07/08 17:01:44;;;;;;;;;;;;;;;;;;5033896;28;924;-71
2022/07/08 17:04:10;;;;;;;;;;;;;;;;;;5033641;28;1910;-72